Bethel, Oklahoma
Current Conditions -  °F | °C
As of 1:55 AM on Wednesday 22 Oct 2014 (Local Time) from K4O4 Reporting Station
Scattered Clouds Scattered Clouds  
Wind Chill: 17°   Ceiling: Unl
Heat Index: 17°   Visibility: 7mi
Dew Point: 15°   Wind: 5mph
Humidity: 88%   Direction: 90°E
Pressure: 30.09"   Gusts: NA
Location:  34.36°N, 94.84°W
Report Text: K4O4 220655Z AUTO 09004KT 7SM SCT038 17/15 A3009 RMK AO2
Loading
Personal Weather Stations






























Interactive Weather Map
Tropical Storm Tracking
New forecast layout! Learn more

10-Day Weather Forecast

Advertisements
Track Severe Weather on mobile